createdAt,value
2023-03-13T00:01:57.664Z,0.30
2023-03-13T00:04:25.563Z,0.25
2023-03-13T00:06:53.050Z,0.63
2023-03-13T00:09:20.856Z,0.30
2023-03-13T00:11:48.318Z,0.17
2023-03-13T00:14:15.771Z,0.03
2023-03-13T00:16:43.519Z,0.08
2023-03-13T00:19:11.350Z,0.20
2023-03-13T00:21:38.617Z,0.30
2023-03-13T00:24:06.027Z,0.45
2023-03-13T00:26:33.490Z,0.25
2023-03-13T00:29:01.002Z,0.10
2023-03-13T00:31:30.743Z,0.10
2023-03-13T00:34:00.818Z,0.20
2023-03-13T00:36:33.688Z,0.10
2023-03-13T00:39:05.666Z,0.32
2023-03-13T00:41:37.098Z,0.25
2023-03-13T00:44:06.428Z,0.10
2023-03-13T00:46:33.761Z,0.25
2023-03-13T00:49:01.382Z,0.17
2023-03-13T00:51:29.191Z,0.35
2023-03-13T00:54:00.501Z,0.10
2023-03-13T00:56:28.936Z,0.13
2023-03-13T00:58:56.489Z,0.13
2023-03-13T01:01:30.206Z,0.30
2023-03-13T01:04:01.660Z,0.05
2023-03-13T01:06:33.178Z,0.30
2023-03-13T01:09:02.141Z,0.28
2023-03-13T01:11:32.555Z,0.10
2023-03-13T01:14:06.324Z,0.25
2023-03-13T01:16:35.611Z,0.20
2023-03-13T01:19:13.128Z,0.10
2023-03-13T01:21:42.609Z,0.30
2023-03-13T01:24:10.393Z,0.47
2023-03-13T01:26:38.749Z,0.68
2023-03-13T01:29:06.162Z,0.50
2023-03-13T01:31:35.725Z,0.35
2023-03-13T01:34:07.038Z,0.57
2023-03-13T01:36:37.215Z,0.17
2023-03-13T01:39:06.304Z,0.47
2023-03-13T01:41:33.511Z,0.20
2023-03-13T01:44:01.798Z,0.30
2023-03-13T01:46:33.935Z,0.63
2023-03-13T01:49:36.603Z,0.30
2023-03-13T01:52:28.477Z,0.10
2023-03-13T01:55:09.678Z,0.28
2023-03-13T01:57:44.636Z,0.25
2023-03-13T02:00:20.576Z,0.30
2023-03-13T02:02:52.272Z,0.28
2023-03-13T02:05:25.376Z,0.10
2023-03-13T02:08:01.070Z,0.45
2023-03-13T02:10:31.749Z,0.22
2023-03-13T02:13:01.224Z,0.30
2023-03-13T02:15:29.629Z,0.30
2023-03-13T02:17:57.954Z,0.52
2023-03-13T02:20:25.732Z,0.50
2023-03-13T02:23:21.730Z,0.22
2023-03-13T02:25:51.739Z,0.30
2023-03-13T02:28:33.561Z,0.65
2023-03-13T02:31:04.512Z,0.57
2023-03-13T02:33:37.123Z,0.50
2023-03-13T02:36:07.376Z,0.32
2023-03-13T02:39:00.456Z,0.65
2023-03-13T02:41:30.097Z,0.50
2023-03-13T02:43:59.748Z,0.50
2023-03-13T02:46:27.389Z,1.00
2023-03-13T02:48:57.270Z,1.77
2023-03-13T02:51:42.848Z,0.98
2023-03-13T02:54:18.682Z,1.23
2023-03-13T02:56:49.599Z,0.65
2023-03-13T02:59:17.393Z,0.40
2023-03-13T03:01:46.788Z,0.20
2023-03-13T03:04:14.125Z,0.35
2023-03-13T03:06:41.658Z,0.45
2023-03-13T03:09:09.348Z,0.22
2023-03-13T03:11:38.731Z,0.40
2023-03-13T03:16:42.974Z,0.15
2023-03-13T03:19:12.854Z,0.50
2023-03-13T03:21:40.863Z,0.38
2023-03-13T03:24:08.669Z,0.50
2023-03-13T03:26:39.337Z,0.40
2023-03-13T03:29:13.713Z,0.88
2023-03-13T03:31:42.002Z,0.50
2023-03-13T03:34:09.964Z,0.90
2023-03-13T03:36:37.336Z,0.60
2023-03-13T03:39:06.217Z,1.10
2023-03-13T03:41:34.673Z,0.82
2023-03-13T03:44:02.477Z,1.42
2023-03-13T03:46:40.166Z,0.77
2023-03-13T03:49:09.849Z,0.93
2023-03-13T03:51:37.468Z,1.70
2023-03-13T03:54:06.318Z,0.77
2023-03-13T03:56:34.168Z,1.15
2023-03-13T03:59:02.004Z,0.65
2023-03-13T04:01:48.768Z,0.55
2023-03-13T04:04:21.530Z,0.65
2023-03-13T04:06:53.514Z,0.30
2023-03-13T04:09:21.644Z,0.47
2023-03-13T04:11:49.262Z,0.30
2023-03-13T04:14:16.519Z,0.47
2023-03-13T04:16:44.387Z,0.60
2023-03-13T04:19:14.381Z,0.30
2023-03-13T04:21:43.545Z,0.45
2023-03-13T04:24:15.283Z,0.35
2023-03-13T04:26:44.685Z,0.80
2023-03-13T04:29:12.351Z,0.65
2023-03-13T04:31:58.155Z,0.80
2023-03-13T04:34:44.356Z,0.57
2023-03-13T04:37:28.865Z,0.70
2023-03-13T04:40:34.595Z,0.32
2023-03-13T04:43:25.600Z,0.50
2023-03-13T04:46:15.857Z,0.50
2023-03-13T04:49:03.736Z,0.60
2023-03-13T04:52:10.080Z,0.63
2023-03-13T04:54:53.167Z,0.98
2023-03-13T04:57:38.570Z,0.40
2023-03-13T05:00:41.483Z,0.82
2023-03-13T05:03:31.806Z,1.02
2023-03-13T05:06:09.945Z,0.80
2023-03-13T05:08:56.428Z,1.10
2023-03-13T05:11:46.704Z,0.75
2023-03-13T05:14:26.077Z,0.70
2023-03-13T05:17:13.284Z,0.90
2023-03-13T05:19:59.961Z,0.80
2023-03-13T05:22:50.464Z,0.82
2023-03-13T05:25:41.202Z,1.10
2023-03-13T05:28:31.386Z,0.88
2023-03-13T05:31:17.854Z,1.13
2023-03-13T05:34:04.409Z,0.73
2023-03-13T05:36:55.092Z,0.90
2023-03-13T05:39:34.847Z,1.42
2023-03-13T05:42:19.145Z,0.80
2023-03-13T05:45:09.444Z,0.65
2023-03-13T05:47:45.880Z,1.05
2023-03-13T05:50:33.356Z,1.77
2023-03-13T05:53:19.322Z,1.63
2023-03-13T05:56:15.430Z,1.38
2023-03-13T05:58:46.160Z,0.82
2023-03-13T06:01:31.989Z,1.20
2023-03-13T06:04:13.535Z,1.20
2023-03-13T06:06:41.725Z,1.70
2023-03-13T06:09:12.065Z,1.55
2023-03-13T06:11:40.337Z,1.40
2023-03-13T06:14:08.820Z,1.83
2023-03-13T06:16:42.187Z,1.35
2023-03-13T06:19:16.250Z,1.10
2023-03-13T06:21:44.384Z,1.25
2023-03-13T06:24:12.401Z,1.67
2023-03-13T06:26:40.161Z,1.02
2023-03-13T06:29:08.001Z,2.10
2023-03-13T06:31:36.508Z,1.08
2023-03-13T06:34:03.821Z,0.85
2023-03-13T06:36:31.785Z,1.10
2023-03-13T06:38:59.180Z,0.93
2023-03-13T06:41:28.016Z,1.70
2023-03-13T06:43:56.088Z,1.35
2023-03-13T06:46:25.109Z,1.33
2023-03-13T06:48:53.391Z,1.70
2023-03-13T06:51:22.483Z,1.80
2023-03-13T06:53:52.568Z,1.70
2023-03-13T06:56:22.020Z,1.52
2023-03-13T06:58:49.837Z,1.45
2023-03-13T07:01:18.327Z,1.85
2023-03-13T07:03:47.175Z,1.80
2023-03-13T07:06:16.584Z,1.50
2023-03-13T07:08:44.584Z,2.08
2023-03-13T07:11:14.076Z,1.52
2023-03-13T07:13:41.723Z,1.77
2023-03-13T07:16:12.421Z,1.77
2023-03-13T07:18:45.084Z,1.48
2023-03-13T07:21:13.251Z,1.58
2023-03-13T07:23:41.176Z,1.70
2023-03-13T07:26:12.438Z,2.05
2023-03-13T07:28:39.970Z,1.48
2023-03-13T07:31:13.859Z,1.73
2023-03-13T07:33:41.936Z,1.23
2023-03-13T07:36:10.538Z,1.00
2023-03-13T07:38:38.899Z,1.85
2023-03-13T07:41:07.188Z,1.95
2023-03-13T07:43:34.887Z,1.20
2023-03-13T07:46:06.099Z,1.92
2023-03-13T07:48:40.307Z,1.75
2023-03-13T07:51:12.888Z,0.75
2023-03-13T07:53:41.039Z,1.33
2023-03-13T07:56:12.346Z,1.42
2023-03-13T07:58:42.073Z,1.23
2023-03-13T08:01:15.658Z,1.33
2023-03-13T08:03:46.435Z,0.95
2023-03-13T08:06:19.448Z,1.58
2023-03-13T08:08:48.258Z,1.80
2023-03-13T08:11:21.786Z,1.05
2023-03-13T08:13:52.784Z,1.02
2023-03-13T08:16:30.356Z,1.63
2023-03-13T08:18:59.653Z,1.70
2023-03-13T08:21:31.807Z,1.50
2023-03-13T08:24:07.752Z,1.20
2023-03-13T08:26:38.214Z,2.45
2023-03-13T08:29:09.438Z,0.75
2023-03-13T08:31:43.196Z,1.17
2023-03-13T08:34:13.030Z,0.75
2023-03-13T08:36:41.722Z,0.90
2023-03-13T08:39:17.119Z,0.60
2023-03-13T08:41:45.110Z,2.35
2023-03-13T08:44:15.972Z,1.58
2023-03-13T08:46:44.763Z,1.58
2023-03-13T08:49:13.646Z,1.50
2023-03-13T08:51:41.544Z,1.35
2023-03-13T08:54:09.001Z,1.55
2023-03-13T08:56:38.109Z,1.77
2023-03-13T08:59:07.080Z,2.42
2023-03-13T09:01:36.020Z,1.73
2023-03-13T09:04:05.667Z,1.13
2023-03-13T09:06:34.861Z,1.60
2023-03-13T09:09:03.962Z,1.52
2023-03-13T09:11:31.868Z,1.20
2023-03-13T09:13:59.900Z,1.67
2023-03-13T09:16:32.754Z,1.52
2023-03-13T09:19:00.902Z,1.70
2023-03-13T09:21:31.334Z,1.40
2023-03-13T09:23:59.420Z,1.17
2023-03-13T09:26:28.397Z,1.40
2023-03-13T09:28:56.960Z,1.00
2023-03-13T09:31:27.414Z,1.23
2023-03-13T09:33:55.014Z,1.17
2023-03-13T09:36:26.937Z,0.80
2023-03-13T09:38:56.932Z,1.73
2023-03-13T09:41:38.019Z,1.58
2023-03-13T09:44:19.965Z,0.98
2023-03-13T09:47:05.519Z,1.25
2023-03-13T09:49:41.904Z,0.77
2023-03-13T09:52:26.117Z,1.35
2023-03-13T09:55:03.445Z,0.40
2023-03-13T09:57:57.220Z,1.40
2023-03-13T10:00:38.716Z,1.75
2023-03-13T10:03:18.844Z,1.20
2023-03-13T10:06:00.734Z,1.23
2023-03-13T10:08:32.601Z,1.70
2023-03-13T10:11:10.663Z,1.08
2023-03-13T10:13:46.601Z,1.02
2023-03-13T10:16:49.297Z,1.17
2023-03-13T10:19:19.282Z,1.60
2023-03-13T10:21:54.273Z,1.13
2023-03-13T10:24:50.869Z,1.25
2023-03-13T10:27:18.711Z,0.90
2023-03-13T10:29:46.549Z,1.30
2023-03-13T10:32:17.268Z,1.83
2023-03-13T10:34:57.271Z,1.33
2023-03-13T10:37:30.458Z,1.80
2023-03-13T10:40:23.894Z,1.05
2023-03-13T10:42:53.996Z,1.00
2023-03-13T10:45:25.334Z,1.45
2023-03-13T10:47:57.905Z,0.50
2023-03-13T10:52:55.337Z,1.02
2023-03-13T10:55:26.670Z,1.13
2023-03-13T10:58:02.001Z,1.08
2023-03-13T11:00:31.940Z,1.75
2023-03-13T11:02:59.512Z,0.93
2023-03-13T11:05:32.892Z,0.77
2023-03-13T11:08:12.990Z,1.33
2023-03-13T11:10:53.420Z,0.55
2023-03-13T11:13:44.857Z,1.33
2023-03-13T11:16:27.060Z,1.00
2023-03-13T11:19:03.675Z,1.13
2023-03-13T11:21:42.590Z,1.23
2023-03-13T11:24:26.277Z,0.93
2023-03-13T11:27:35.716Z,0.93
2023-03-13T11:30:12.458Z,0.75
2023-03-13T11:32:44.272Z,1.02
2023-03-13T11:35:51.600Z,0.70
2023-03-13T11:38:35.886Z,0.57
2023-03-13T11:41:31.003Z,1.25
2023-03-13T11:44:05.177Z,1.48
2023-03-13T11:47:29.321Z,1.20
2023-03-13T11:50:06.325Z,1.40
2023-03-13T11:52:46.808Z,0.63
2023-03-13T11:55:56.451Z,1.25
2023-03-13T11:58:32.567Z,0.98
2023-03-13T12:01:06.497Z,1.35
2023-03-13T12:03:48.899Z,1.35
2023-03-13T14:03:57.613Z,0.38
2023-03-13T14:06:30.198Z,0.68
2023-03-13T14:09:24.997Z,0.90
2023-03-13T14:15:36.977Z,0.70
2023-03-13T14:18:25.338Z,0.70
2023-03-13T14:21:08.087Z,0.75
2023-03-13T14:23:43.187Z,0.77
2023-03-13T14:26:29.646Z,0.90
2023-03-13T14:29:08.164Z,1.58
2023-03-13T14:31:43.874Z,1.02
2023-03-13T14:34:17.043Z,1.10
2023-03-13T14:36:49.775Z,1.10
2023-03-13T14:39:46.521Z,1.13
2023-03-13T14:42:17.859Z,1.20
2023-03-13T14:44:51.732Z,1.10
2023-03-13T14:47:21.738Z,1.23
2023-03-13T14:50:05.521Z,0.82
2023-03-13T14:52:41.122Z,1.10
2023-03-13T14:55:34.851Z,1.00
2023-03-13T14:58:08.836Z,1.30
2023-03-13T15:00:43.951Z,1.50
2023-03-13T15:03:23.142Z,1.10
2023-03-13T15:06:13.422Z,0.85
2023-03-13T15:08:45.572Z,1.05
2023-03-13T15:11:29.592Z,1.00
2023-03-13T15:13:59.401Z,0.95
2023-03-13T15:16:31.462Z,1.50
2023-03-13T15:18:59.194Z,1.20
2023-03-13T15:21:33.686Z,1.55
2023-03-13T15:24:12.455Z,1.40
2023-03-13T15:26:41.732Z,1.60
2023-03-13T15:29:12.146Z,1.70
2023-03-13T15:31:43.679Z,1.30
2023-03-13T15:34:15.228Z,1.50
2023-03-13T15:36:43.916Z,1.33
2023-03-13T15:39:20.855Z,1.40
2023-03-13T15:41:48.096Z,1.23
2023-03-13T15:44:17.273Z,1.55
2023-03-13T15:46:45.568Z,1.83
2023-03-13T15:49:15.115Z,1.63
2023-03-13T15:51:43.605Z,1.70
2023-03-13T15:54:12.625Z,1.55
2023-03-13T15:56:41.173Z,2.03
2023-03-13T15:59:13.265Z,1.48
2023-03-13T16:01:42.599Z,1.63
2023-03-13T16:04:12.599Z,1.67
2023-03-13T16:06:40.649Z,1.42
2023-03-13T16:09:08.399Z,1.55
2023-03-13T16:11:36.929Z,1.30
2023-03-13T16:14:04.837Z,1.50
2023-03-13T16:16:37.837Z,1.08
2023-03-13T16:19:08.158Z,1.75
2023-03-13T16:21:36.585Z,1.27
2023-03-13T16:24:04.665Z,1.42
2023-03-13T16:26:32.379Z,1.05
2023-03-13T16:28:59.643Z,1.63
2023-03-13T16:31:29.514Z,1.50
2023-03-13T16:33:58.372Z,1.50
2023-03-13T16:36:31.528Z,1.08
2023-03-13T16:39:00.112Z,1.40
2023-03-13T16:41:28.451Z,1.40
2023-03-13T16:43:56.604Z,1.40
2023-03-13T16:46:30.194Z,1.63
2023-03-13T16:48:58.687Z,1.55
2023-03-13T16:51:28.902Z,1.25
2023-03-13T16:54:00.466Z,1.75
2023-03-13T16:56:38.200Z,1.20
2023-03-13T16:59:10.650Z,1.52
2023-03-13T17:01:38.776Z,1.65
2023-03-13T17:04:07.033Z,1.30
2023-03-13T17:06:42.732Z,1.13
2023-03-13T17:09:16.804Z,1.15
2023-03-13T17:11:44.056Z,0.98
2023-03-13T17:14:11.830Z,1.77
2023-03-13T17:16:42.764Z,1.52
2023-03-13T17:19:17.192Z,1.25
2023-03-13T17:21:44.621Z,1.75
2023-03-13T17:24:11.953Z,1.40
2023-03-13T17:26:40.305Z,1.60
2023-03-13T17:29:08.902Z,2.40
2023-03-13T17:31:40.256Z,1.67
2023-03-13T17:34:08.646Z,1.58
2023-03-13T17:36:36.908Z,1.63
2023-03-13T17:39:09.022Z,1.60
2023-03-13T17:41:37.374Z,1.65
2023-03-13T17:44:04.995Z,1.63
2023-03-13T17:46:54.134Z,1.73
2023-03-13T17:49:21.326Z,1.77
2023-03-13T17:51:50.251Z,1.27
2023-03-13T17:54:18.955Z,1.48
2023-03-13T17:56:45.994Z,1.50
2023-03-13T17:59:18.273Z,1.60
2023-03-13T18:01:45.948Z,1.55
2023-03-13T18:04:13.775Z,1.50
2023-03-13T18:06:43.876Z,1.30
2023-03-13T18:09:21.545Z,1.75
2023-03-13T18:11:49.975Z,1.52
2023-03-13T18:14:17.296Z,0.63
2023-03-13T18:16:48.190Z,1.77
2023-03-13T18:19:17.860Z,1.30
2023-03-13T18:21:46.747Z,1.40
2023-03-13T18:24:15.717Z,2.00
2023-03-13T18:26:47.006Z,1.33
2023-03-13T18:29:26.977Z,1.60
2023-03-13T18:31:59.293Z,2.22
2023-03-13T18:34:28.068Z,2.60
2023-03-13T18:36:55.842Z,1.90
2023-03-13T18:39:23.314Z,1.20
2023-03-13T18:41:53.342Z,1.25
2023-03-13T18:44:21.215Z,1.90
2023-03-13T18:46:48.462Z,1.65
2023-03-13T18:49:20.326Z,1.08
2023-03-13T18:51:48.990Z,0.82
2023-03-13T18:54:16.486Z,2.05
2023-03-13T18:56:45.370Z,1.90
2023-03-13T18:59:16.224Z,1.92
2023-03-13T19:01:43.959Z,2.25
2023-03-13T19:04:11.262Z,1.63
2023-03-13T19:06:40.267Z,1.63
2023-03-13T19:09:41.202Z,1.88
2023-03-13T19:12:04.945Z,1.52
2023-03-13T19:14:32.947Z,1.58
2023-03-13T19:17:00.214Z,2.13
2023-03-13T19:19:27.608Z,1.30
2023-03-13T19:21:57.912Z,2.17
2023-03-13T19:24:27.825Z,2.78
2023-03-13T19:26:59.061Z,2.03
2023-03-13T19:29:28.766Z,2.33
2023-03-13T19:31:56.092Z,2.15
2023-03-13T19:34:24.007Z,2.00
2023-03-13T19:36:53.879Z,2.22
2023-03-13T19:39:26.756Z,1.27
2023-03-13T19:41:57.128Z,2.13
2023-03-13T19:44:27.680Z,1.70
2023-03-13T19:46:56.497Z,1.27
2023-03-13T19:49:23.814Z,1.13
2023-03-13T19:51:51.434Z,2.22
2023-03-13T19:54:18.822Z,1.58
2023-03-13T19:56:50.059Z,1.10
2023-03-13T19:59:20.088Z,1.92
2023-03-13T20:01:47.804Z,1.45
2023-03-13T20:04:15.666Z,2.15
2023-03-13T20:06:46.244Z,2.25
2023-03-13T20:09:16.952Z,1.58
2023-03-13T20:11:45.146Z,1.63
2023-03-13T20:14:14.582Z,0.70
2023-03-13T20:16:46.471Z,1.67
2023-03-13T20:19:19.319Z,1.98
2023-03-13T20:21:47.631Z,1.50
2023-03-13T20:24:15.894Z,1.92
2023-03-13T20:26:45.139Z,1.45
2023-03-13T20:29:12.780Z,1.65
2023-03-13T20:31:40.488Z,2.22
2023-03-13T20:34:09.282Z,1.63
2023-03-13T20:36:37.567Z,1.90
2023-03-13T20:39:05.801Z,2.78
2023-03-13T20:41:34.881Z,1.60
2023-03-13T20:44:02.645Z,1.67
2023-03-13T20:46:30.930Z,1.83
2023-03-13T20:48:59.065Z,1.50
2023-03-13T20:51:28.024Z,1.95
2023-03-13T20:53:55.507Z,1.83
2023-03-13T20:56:23.705Z,1.42
2023-03-13T20:58:50.855Z,1.33
2023-03-13T21:01:22.363Z,1.38
2023-03-13T21:03:49.693Z,1.88
2023-03-13T21:06:19.207Z,1.40
2023-03-13T21:08:47.694Z,1.77
2023-03-13T21:11:18.316Z,1.17
2023-03-13T21:13:46.553Z,1.60
2023-03-13T21:16:14.001Z,1.90
2023-03-13T21:18:41.498Z,1.75
2023-03-13T21:21:13.923Z,1.90
2023-03-13T21:23:43.978Z,0.88
2023-03-13T21:26:11.966Z,1.08
2023-03-13T21:28:40.358Z,0.95
2023-03-13T21:31:18.190Z,1.65
2023-03-13T21:33:47.724Z,2.10
2023-03-13T21:36:17.554Z,1.75
2023-03-13T21:38:45.377Z,1.92
2023-03-13T21:41:18.367Z,1.15
2023-03-13T21:43:45.913Z,1.50
2023-03-13T21:46:17.540Z,1.30
2023-03-13T21:51:18.276Z,1.63
2023-03-13T21:53:49.152Z,1.35
2023-03-13T21:56:17.487Z,2.42
2023-03-13T21:58:45.636Z,1.08
2023-03-13T22:01:15.008Z,2.50
2023-03-13T22:03:44.195Z,1.92
2023-03-13T22:06:17.870Z,1.10
2023-03-13T22:08:45.435Z,1.40
2023-03-13T22:11:12.644Z,1.83
2023-03-13T22:13:40.103Z,1.75
2023-03-13T22:16:07.992Z,1.25
2023-03-13T22:18:35.459Z,1.15
2023-03-13T22:21:02.749Z,2.28
2023-03-13T22:23:30.171Z,1.25
2023-03-13T22:25:58.850Z,1.15
2023-03-13T22:28:26.756Z,1.38
2023-03-13T22:30:54.151Z,2.70
2023-03-13T22:33:21.541Z,0.80
2023-03-13T22:35:55.057Z,1.58
2023-03-13T22:38:23.682Z,1.13
2023-03-13T22:41:03.303Z,3.08
2023-03-13T22:43:31.319Z,1.40
2023-03-13T22:45:59.635Z,1.48
2023-03-13T22:48:27.659Z,1.65
2023-03-13T22:51:13.515Z,1.60
2023-03-13T22:53:43.754Z,1.55
2023-03-13T22:56:12.777Z,1.27
2023-03-13T22:58:41.083Z,1.70
2023-03-13T23:01:11.511Z,1.10
2023-03-13T23:03:41.009Z,0.98
2023-03-13T23:06:14.580Z,1.63
2023-03-13T23:08:43.872Z,2.03
2023-03-13T23:11:11.422Z,1.75
2023-03-13T23:13:38.992Z,2.17
2023-03-13T23:16:11.367Z,1.85
2023-03-13T23:18:39.367Z,1.77
2023-03-13T23:21:08.952Z,1.95
2023-03-13T23:23:37.308Z,1.50
2023-03-13T23:26:07.841Z,1.52
2023-03-13T23:28:36.832Z,1.60
2023-03-13T23:31:16.151Z,1.45
2023-03-13T23:33:45.379Z,1.50
2023-03-13T23:36:16.997Z,1.80
2023-03-13T23:38:49.771Z,1.83
2023-03-13T23:43:45.036Z,1.27
2023-03-13T23:46:22.173Z,1.20
2023-03-13T23:48:53.942Z,1.58
2023-03-13T23:51:21.194Z,1.00
2023-03-13T23:53:48.574Z,1.42
2023-03-13T23:56:16.098Z,1.30
2023-03-13T23:58:43.921Z,1.05
